createdAt,value
2022-12-20T00:00:52.529Z,102256.75
2022-12-20T00:03:20.718Z,102254.06
2022-12-20T00:05:48.071Z,102254.06
2022-12-20T00:08:15.323Z,102265.47
2022-12-20T00:10:44.647Z,102268.13
2022-12-20T00:13:12.469Z,102270.72
2022-12-20T00:15:39.244Z,102270.72
2022-12-20T00:18:06.700Z,102261.88
2022-12-20T00:20:33.459Z,102267.16
2022-12-20T00:22:59.993Z,102266.22
2022-12-20T00:25:26.589Z,102265.31
2022-12-20T00:27:53.125Z,102268.81
2022-12-20T00:30:19.832Z,102254.69
2022-12-20T00:32:47.169Z,102248.53
2022-12-20T00:35:13.824Z,102254.66
2022-12-20T00:37:40.451Z,102257.28
2022-12-20T00:40:07.664Z,102254.59
2022-12-20T00:42:34.264Z,102246.66
2022-12-20T00:45:00.910Z,102248.41
2022-12-20T00:47:27.425Z,102245.75
2022-12-20T00:49:53.929Z,102236.06
2022-12-20T00:52:20.449Z,102233.41
2022-12-20T00:54:46.984Z,102221.09
2022-12-20T00:57:13.475Z,102216.66
2022-12-20T00:59:40.004Z,102209.63
2022-12-20T01:02:06.591Z,102213.16
2022-12-20T01:04:33.267Z,102222.00
2022-12-20T01:06:59.778Z,102214.97
2022-12-20T01:09:26.348Z,102212.31
2022-12-20T01:11:52.852Z,102215.88
2022-12-20T01:14:19.456Z,102212.34
2022-12-20T01:16:47.643Z,102215.88
2022-12-20T01:19:16.005Z,102213.25
2022-12-20T01:21:44.895Z,102221.22
2022-12-20T01:24:16.308Z,102212.41
2022-12-20T01:26:43.363Z,102212.41
2022-12-20T01:29:10.121Z,102208.84
2022-12-20T01:31:36.776Z,102199.19
2022-12-20T01:34:03.684Z,102196.53
2022-12-20T01:36:33.002Z,102187.72
2022-12-20T01:39:15.144Z,102186.81
2022-12-20T01:41:43.961Z,102184.19
2022-12-20T01:44:16.627Z,102182.44
2022-12-20T01:46:44.826Z,102176.31
2022-12-20T01:49:29.224Z,102163.13
2022-12-20T01:51:57.895Z,102162.28
2022-12-20T01:54:30.161Z,102156.97
2022-12-20T01:57:02.070Z,102162.28
2022-12-20T01:59:29.542Z,102146.44
2022-12-20T02:02:03.756Z,102136.75
2022-12-20T02:04:30.600Z,102127.06
2022-12-20T02:06:58.119Z,102132.34
2022-12-20T02:09:24.773Z,102131.47
2022-12-20T02:11:54.000Z,102133.22
2022-12-20T02:14:35.742Z,102130.59
2022-12-20T02:17:08.272Z,102122.69
2022-12-20T02:20:18.787Z,102116.56
2022-12-20T02:23:03.821Z,102121.84
2022-12-20T02:25:30.291Z,102118.41
2022-12-20T02:28:23.700Z,102117.56
2022-12-20T02:30:55.375Z,102114.97
2022-12-20T02:33:25.368Z,102123.75
2022-12-20T02:35:51.905Z,102131.72
2022-12-20T02:38:44.949Z,102121.22
2022-12-20T02:41:19.535Z,102115.09
2022-12-20T02:44:12.951Z,102125.66
2022-12-20T02:46:40.171Z,102126.56
2022-12-20T02:49:14.845Z,102126.56
2022-12-20T02:51:44.079Z,102125.69
2022-12-20T02:54:10.695Z,102124.81
2022-12-20T02:56:50.232Z,102116.91
2022-12-20T02:59:32.343Z,102103.69
2022-12-20T03:01:59.682Z,102101.91
2022-12-20T03:04:31.377Z,102094.84
2022-12-20T03:07:04.430Z,102091.28
2022-12-20T03:09:33.029Z,102089.53
2022-12-20T03:12:00.153Z,102101.84
2022-12-20T03:14:26.952Z,102093.03
2022-12-20T03:16:53.651Z,102085.06
2022-12-20T03:19:20.462Z,102089.50
2022-12-20T03:21:47.181Z,102085.97
2022-12-20T03:24:14.701Z,102080.69
2022-12-20T03:26:41.982Z,102075.44
2022-12-20T03:29:08.619Z,102065.78
2022-12-20T03:31:35.623Z,102068.44
2022-12-20T03:34:02.932Z,102077.25
2022-12-20T03:36:29.891Z,102072.88
2022-12-20T03:38:56.839Z,102076.47
2022-12-20T03:41:23.947Z,102080.84
2022-12-20T03:43:52.911Z,102084.38
2022-12-20T03:46:19.811Z,102074.78
2022-12-20T03:48:46.389Z,102074.78
2022-12-20T03:51:12.996Z,102079.22
2022-12-20T03:53:39.573Z,102080.97
2022-12-20T03:56:06.397Z,102072.25
2022-12-20T03:58:32.909Z,102085.44
2022-12-20T04:00:59.548Z,102077.53
2022-12-20T04:03:26.134Z,102069.63
2022-12-20T04:05:52.735Z,102071.38
2022-12-20T04:08:19.295Z,102077.53
2022-12-20T04:11:04.429Z,102070.50
2022-12-20T04:13:30.896Z,102061.69
2022-12-20T04:16:00.579Z,102052.91
2022-12-20T04:18:27.603Z,102037.97
2022-12-20T04:20:54.893Z,102031.78
2022-12-20T04:23:21.557Z,102028.28
2022-12-20T04:25:48.063Z,102029.16
2022-12-20T04:28:14.594Z,102033.56
2022-12-20T04:30:41.085Z,102020.41
2022-12-20T04:33:07.667Z,102020.38
2022-12-20T04:35:34.254Z,102033.53
2022-12-20T04:38:00.819Z,102028.25
2022-12-20T04:40:27.365Z,102021.19
2022-12-20T04:42:53.928Z,102022.91
2022-12-20T04:45:20.505Z,102021.06
2022-12-20T04:47:47.009Z,102025.44
2022-12-20T04:50:13.909Z,102024.53
2022-12-20T04:52:59.032Z,102032.44
2022-12-20T04:55:25.386Z,102035.94
2022-12-20T04:57:51.893Z,102034.19
2022-12-20T05:00:18.895Z,102042.09
2022-12-20T05:02:45.581Z,102048.28
2022-12-20T05:05:12.505Z,102040.38
2022-12-20T05:07:39.072Z,102040.38
2022-12-20T05:10:06.319Z,102045.66
2022-12-20T05:12:32.832Z,102050.97
2022-12-20T05:14:59.378Z,102055.38
2022-12-20T05:17:26.120Z,102051.88
2022-12-20T05:19:52.671Z,102052.78
2022-12-20T05:22:37.615Z,102054.53
2022-12-20T05:25:23.070Z,102052.78
2022-12-20T05:27:49.706Z,102061.53
2022-12-20T05:30:16.241Z,102056.28
2022-12-20T05:32:42.819Z,102064.19
2022-12-20T05:35:09.927Z,102066.81
2022-12-20T05:37:36.673Z,102058.94
2022-12-20T05:40:04.672Z,102053.66
2022-12-20T05:42:31.224Z,102066.88
2022-12-20T05:44:57.848Z,102063.38
2022-12-20T05:47:24.909Z,102070.41
2022-12-20T05:49:51.579Z,102054.63
2022-12-20T05:52:18.175Z,102059.91
2022-12-20T05:54:44.712Z,102052.88
2022-12-20T05:57:11.314Z,102044.09
2022-12-20T05:59:37.949Z,102042.34
2022-12-20T06:02:04.653Z,102038.84
2022-12-20T06:04:32.262Z,102032.72
2022-12-20T06:06:59.914Z,102029.22
2022-12-20T06:09:26.483Z,102031.88
2022-12-20T06:11:53.280Z,102018.72
2022-12-20T06:14:19.979Z,102020.50
2022-12-20T06:16:46.735Z,102018.75
2022-12-20T06:19:20.835Z,102012.63
2022-12-20T06:21:48.107Z,102010.88
2022-12-20T06:24:14.619Z,102014.38
2022-12-20T06:26:41.679Z,102024.06
2022-12-20T06:29:10.249Z,102015.28
2022-12-20T06:31:36.847Z,102011.78
2022-12-20T06:34:03.487Z,102010.91
2022-12-20T06:36:29.980Z,102016.19
2022-12-20T06:38:56.507Z,102011.78
2022-12-20T06:41:23.122Z,102006.56
2022-12-20T06:43:49.651Z,102013.59
2022-12-20T06:46:16.253Z,102005.69
2022-12-20T06:48:42.846Z,102003.88
2022-12-20T06:51:09.391Z,102003.88
2022-12-20T06:53:35.973Z,102006.50
2022-12-20T06:56:02.477Z,101992.44
2022-12-20T06:58:29.079Z,101993.28
2022-12-20T07:00:55.803Z,102000.34
2022-12-20T07:03:22.515Z,101996.78
2022-12-20T07:05:55.501Z,101995.81
2022-12-20T07:08:23.257Z,101991.38
2022-12-20T07:10:52.625Z,101983.41
2022-12-20T07:13:19.448Z,101988.63
2022-12-20T07:15:46.086Z,101988.59
2022-12-20T07:18:12.853Z,101977.09
2022-12-20T07:20:39.472Z,101970.88
2022-12-20T07:23:06.152Z,101977.84
2022-12-20T07:25:32.670Z,101983.06
2022-12-20T07:27:59.197Z,101988.28
2022-12-20T07:30:26.789Z,101993.47
2022-12-20T07:32:53.362Z,101992.53
2022-12-20T07:35:19.943Z,101992.44
2022-12-20T07:37:46.484Z,101998.50
2022-12-20T07:40:14.776Z,101994.03
2022-12-20T07:42:47.904Z,101985.19
2022-12-20T07:45:15.654Z,101984.22
2022-12-20T07:47:42.243Z,101980.63
2022-12-20T07:50:09.413Z,101988.47
2022-12-20T07:52:37.180Z,101986.56
2022-12-20T07:55:08.059Z,101984.66
2022-12-20T07:57:47.528Z,101982.69
2022-12-20T08:00:15.131Z,101986.00
2022-12-20T08:03:07.599Z,101976.13
2022-12-20T08:05:37.659Z,101973.28
2022-12-20T08:08:05.549Z,101950.97
2022-12-20T08:10:32.144Z,101943.53
2022-12-20T08:12:59.390Z,101941.53
2022-12-20T08:15:28.084Z,101930.97
2022-12-20T08:17:54.640Z,101936.31
2022-12-20T08:20:21.524Z,101927.53
2022-12-20T08:22:48.094Z,101927.56
2022-12-20T08:25:14.754Z,101931.97
2022-12-20T08:27:41.467Z,101928.44
2022-12-20T08:30:10.406Z,101936.34
2022-12-20T08:32:37.940Z,101939.81
2022-12-20T08:35:04.960Z,101937.94
2022-12-20T08:37:31.539Z,101938.34
2022-12-20T08:39:58.163Z,101936.66
2022-12-20T08:42:24.736Z,101931.78
2022-12-20T08:44:51.420Z,101925.78
2022-12-20T08:47:18.217Z,101919.66
2022-12-20T08:49:47.940Z,101928.38
2022-12-20T08:52:15.079Z,101911.19
2022-12-20T08:54:41.611Z,101905.59
2022-12-20T08:57:08.696Z,101893.84
2022-12-20T08:59:35.263Z,101909.03
2022-12-20T09:02:01.862Z,101905.94
2022-12-20T09:04:28.569Z,101904.38
2022-12-20T09:06:55.075Z,101894.78
2022-12-20T09:09:21.660Z,101904.63
2022-12-20T09:11:48.159Z,101903.63
2022-12-20T09:14:14.669Z,101918.84
2022-12-20T09:16:41.466Z,101912.75
2022-12-20T09:19:07.997Z,101910.59
2022-12-20T09:21:35.239Z,101904.38
2022-12-20T09:24:01.879Z,101911.56
2022-12-20T09:26:28.560Z,101897.84
2022-12-20T09:28:55.137Z,101902.63
2022-12-20T09:31:24.505Z,101897.88
2022-12-20T09:33:54.890Z,101896.59
2022-12-20T09:36:23.382Z,101881.84
2022-12-20T09:38:49.981Z,101856.13
2022-12-20T09:41:48.310Z,101851.97
2022-12-20T09:44:25.447Z,101850.94
2022-12-20T09:47:10.847Z,101856.94
2022-12-20T09:49:42.057Z,101840.16
2022-12-20T09:52:59.186Z,101842.88
2022-12-20T09:55:53.171Z,101843.72
2022-12-20T09:58:31.717Z,101849.16
2022-12-20T10:00:58.508Z,101852.66
2022-12-20T10:03:33.479Z,101839.22
2022-12-20T10:06:16.361Z,101840.94
2022-12-20T10:08:56.355Z,101834.34
2022-12-20T10:11:48.218Z,101830.72
2022-12-20T10:14:44.785Z,101837.03
2022-12-20T10:17:32.188Z,101829.72
2022-12-20T10:20:17.993Z,101823.88
2022-12-20T10:22:53.045Z,101817.94
2022-12-20T10:25:25.402Z,101815.06
2022-12-20T10:27:57.049Z,101802.03
2022-12-20T10:30:26.936Z,101808.13
2022-12-20T10:32:57.256Z,101798.66
2022-12-20T10:35:26.898Z,101795.84
2022-12-20T10:38:09.155Z,101783.53
2022-12-20T10:43:45.487Z,101773.97
2022-12-20T10:46:14.837Z,101767.13
2022-12-20T10:48:43.705Z,101764.53
2022-12-20T10:51:15.474Z,101763.91
2022-12-20T10:54:01.375Z,101762.47
2022-12-20T10:56:32.616Z,101761.25
2022-12-20T10:59:19.355Z,101756.56
2022-12-20T11:01:48.075Z,101749.53
2022-12-20T11:04:35.867Z,101743.25
2022-12-20T11:07:21.464Z,101738.88
2022-12-20T11:10:20.097Z,101748.09
2022-12-20T11:12:53.855Z,101732.13
2022-12-20T11:15:34.168Z,101722.78
2022-12-20T11:18:11.624Z,101717.72
2022-12-20T11:20:41.179Z,101721.66
2022-12-20T11:23:17.284Z,101709.91
2022-12-20T11:26:01.455Z,101718.28
2022-12-20T11:28:51.759Z,101726.53
2022-12-20T11:31:24.053Z,101715.41
2022-12-20T11:34:20.727Z,101699.22
2022-12-20T11:37:06.075Z,101700.97
2022-12-20T11:40:01.870Z,101707.09
2022-12-20T11:42:37.123Z,101704.50
2022-12-20T11:45:26.013Z,101692.47
2022-12-20T11:48:03.075Z,101680.84
2022-12-20T11:51:01.713Z,101693.56
2022-12-20T11:53:54.358Z,101676.25
2022-12-20T11:56:45.103Z,101683.00
2022-12-20T11:59:14.513Z,101671.25
2022-12-20T12:01:46.914Z,101679.13
2022-12-20T12:04:20.992Z,101675.53
2022-12-20T12:07:03.551Z,101674.69
2022-12-20T12:09:30.079Z,101662.31
2022-12-20T12:12:25.136Z,101650.41
2022-12-20T12:15:16.708Z,101652.13
2022-12-20T12:18:02.429Z,101655.25
2022-12-20T12:20:47.858Z,101647.91
2022-12-20T12:23:29.993Z,101651.59
2022-12-20T12:26:02.261Z,101646.94
2022-12-20T12:28:28.873Z,101637.84
2022-12-20T12:31:06.980Z,101634.69
2022-12-20T12:34:02.932Z,101653.16
2022-12-20T12:36:52.234Z,101651.63
2022-12-20T12:39:48.117Z,101641.97
2022-12-20T12:42:39.511Z,101634.03
2022-12-20T12:45:15.220Z,101631.50
2022-12-20T12:47:50.693Z,101645.25
2022-12-20T12:50:29.340Z,101644.28
2022-12-20T12:53:03.975Z,101643.66
2022-12-20T12:55:37.845Z,101648.81
2022-12-20T12:58:27.752Z,101641.41
2022-12-20T13:01:00.327Z,101651.72
2022-12-20T13:04:06.139Z,101648.75
2022-12-20T13:06:35.330Z,101647.31
2022-12-20T13:09:04.976Z,101643.22
2022-12-20T13:11:40.282Z,101640.97
2022-12-20T13:14:14.760Z,101636.25
2022-12-20T13:17:11.481Z,101637.53
2022-12-20T13:19:28.901Z,101637.41
2022-12-20T13:22:19.431Z,101635.88
2022-12-20T13:25:29.095Z,101629.16
2022-12-20T13:28:16.631Z,101624.69
2022-12-20T13:30:45.152Z,101626.84
2022-12-20T13:33:24.164Z,101626.97
2022-12-20T13:36:00.058Z,101625.59
2022-12-20T13:38:54.508Z,101620.81
2022-12-20T13:41:35.656Z,101617.81
2022-12-20T13:44:33.059Z,101613.03
2022-12-20T13:47:06.213Z,101610.63
2022-12-20T13:49:43.719Z,101608.41
2022-12-20T13:52:25.638Z,101613.63
2022-12-20T13:54:56.976Z,101603.91
2022-12-20T13:57:41.840Z,101599.47
2022-12-20T14:00:17.785Z,101588.91
2022-12-20T14:02:45.538Z,101589.97
2022-12-20T14:05:19.723Z,101588.34
2022-12-20T14:07:52.069Z,101590.06
2022-12-20T14:10:27.611Z,101582.47
2022-12-20T14:12:55.727Z,101575.69
2022-12-20T14:15:33.773Z,101570.78
2022-12-20T14:18:18.501Z,101576.13
2022-12-20T14:20:52.019Z,101568.47
2022-12-20T14:23:24.758Z,101576.09
2022-12-20T14:25:56.007Z,101573.03
2022-12-20T14:28:47.296Z,101562.97
2022-12-20T14:31:31.879Z,101568.09
2022-12-20T14:34:16.617Z,101562.50
2022-12-20T14:36:48.622Z,101549.16
2022-12-20T14:39:24.820Z,101549.78
2022-12-20T14:42:02.418Z,101537.91
2022-12-20T14:44:31.647Z,101537.41
2022-12-20T14:47:05.708Z,101531.59
2022-12-20T14:49:34.423Z,101541.56
2022-12-20T14:52:06.943Z,101537.53
2022-12-20T14:55:06.567Z,101538.75
2022-12-20T14:57:35.893Z,101531.94
2022-12-20T15:00:17.765Z,101537.47
2022-12-20T15:02:51.277Z,101543.88
2022-12-20T15:05:37.603Z,101542.41
2022-12-20T15:08:21.015Z,101547.97
2022-12-20T15:10:51.933Z,101547.34
2022-12-20T15:13:20.810Z,101547.50
2022-12-20T15:15:47.517Z,101552.19
2022-12-20T15:18:16.277Z,101539.13
2022-12-20T15:20:44.687Z,101541.19
2022-12-20T15:23:20.611Z,101537.94
2022-12-20T15:25:48.228Z,101533.66
2022-12-20T15:28:21.101Z,101533.72
2022-12-20T15:30:49.293Z,101537.34
2022-12-20T15:33:22.434Z,101543.84
2022-12-20T15:35:49.195Z,101550.22
2022-12-20T15:38:25.354Z,101549.38
2022-12-20T15:41:05.482Z,101549.50
2022-12-20T15:43:39.143Z,101554.19
2022-12-20T15:46:05.965Z,101562.38
2022-12-20T15:48:32.654Z,101562.56
2022-12-20T15:50:59.485Z,101563.59
2022-12-20T15:53:31.282Z,101560.25
2022-12-20T15:55:58.490Z,101563.88
2022-12-20T15:58:26.170Z,101560.50
2022-12-20T16:01:00.409Z,101557.94
2022-12-20T16:03:31.085Z,101558.03
2022-12-20T16:05:58.328Z,101562.59
2022-12-20T16:08:24.918Z,101562.63
2022-12-20T16:10:52.229Z,101558.38
2022-12-20T16:13:24.094Z,101563.78
2022-12-20T16:15:51.716Z,101563.00
2022-12-20T16:18:18.713Z,101574.56
2022-12-20T16:20:45.295Z,101559.59
2022-12-20T16:23:18.054Z,101550.75
2022-12-20T16:25:44.978Z,101551.69
2022-12-20T16:28:11.661Z,101548.22
2022-12-20T16:30:38.682Z,101557.22
2022-12-20T16:33:06.652Z,101553.81
2022-12-20T16:35:37.361Z,101547.78
2022-12-20T16:38:04.475Z,101543.44
2022-12-20T16:40:32.908Z,101542.59
2022-12-20T16:43:00.333Z,101542.50
2022-12-20T16:45:30.872Z,101545.25
2022-12-20T16:47:57.976Z,101550.63
2022-12-20T16:50:26.750Z,101551.53
2022-12-20T16:52:53.756Z,101543.66
2022-12-20T16:55:26.782Z,101546.44
2022-12-20T16:57:54.334Z,101558.00
2022-12-20T17:00:27.139Z,101538.56
2022-12-20T17:02:53.910Z,101530.63
2022-12-20T17:05:29.751Z,101523.59
2022-12-20T17:07:56.650Z,101526.31
2022-12-20T17:10:24.967Z,101514.88
2022-12-20T17:12:51.981Z,101514.91
2022-12-20T17:15:27.828Z,101520.34
2022-12-20T17:17:54.833Z,101525.69
2022-12-20T17:20:24.124Z,101517.84
2022-12-20T17:25:38.105Z,101521.47
2022-12-20T17:28:04.908Z,101525.97
2022-12-20T17:30:31.476Z,101517.13
2022-12-20T17:32:58.136Z,101518.97
2022-12-20T17:35:33.037Z,101525.22
2022-12-20T17:38:00.553Z,101517.38
2022-12-20T17:40:28.515Z,101520.00
2022-12-20T17:42:55.465Z,101527.19
2022-12-20T17:45:36.212Z,101523.66
2022-12-20T17:48:04.780Z,101524.66
2022-12-20T17:50:31.356Z,101529.97
2022-12-20T17:52:58.025Z,101514.13
2022-12-20T17:55:27.790Z,101519.47
2022-12-20T17:57:56.273Z,101511.50
2022-12-20T18:00:36.373Z,101511.63
2022-12-20T18:03:05.488Z,101505.44
2022-12-20T18:05:32.228Z,101508.13
2022-12-20T18:07:58.832Z,101495.81
2022-12-20T18:10:25.455Z,101500.31
2022-12-20T18:12:52.052Z,101507.50
2022-12-20T18:15:20.171Z,101497.81
2022-12-20T18:17:46.979Z,101497.91
2022-12-20T18:20:13.839Z,101493.59
2022-12-20T18:22:40.664Z,101490.16
2022-12-20T18:25:08.579Z,101478.78
2022-12-20T18:27:41.645Z,101477.09
2022-12-20T18:30:09.272Z,101463.91
2022-12-20T18:32:35.950Z,101469.28
2022-12-20T18:35:02.614Z,101472.03
2022-12-20T18:37:29.538Z,101462.44
2022-12-20T18:39:56.221Z,101462.50
2022-12-20T18:42:22.838Z,101462.63
2022-12-20T18:44:50.093Z,101461.81
2022-12-20T18:47:16.698Z,101453.91
2022-12-20T18:49:43.272Z,101456.63
2022-12-20T18:52:09.826Z,101459.41
2022-12-20T18:54:36.496Z,101466.53
2022-12-20T18:57:05.946Z,101462.19
2022-12-20T18:59:32.927Z,101459.59
2022-12-20T19:02:00.041Z,101456.16
2022-12-20T19:04:26.938Z,101458.88
2022-12-20T19:06:53.661Z,101452.75
2022-12-20T19:09:20.386Z,101458.16
2022-12-20T19:11:51.611Z,101460.81
2022-12-20T19:14:21.348Z,101452.13
2022-12-20T19:16:49.824Z,101449.53
2022-12-20T19:19:16.485Z,101445.16
2022-12-20T19:21:43.137Z,101439.06
2022-12-20T19:24:11.495Z,101428.50
2022-12-20T19:26:39.715Z,101429.31
2022-12-20T19:29:06.807Z,101421.38
2022-12-20T19:31:36.305Z,101420.47
2022-12-20T19:34:08.560Z,101425.72
2022-12-20T19:36:41.388Z,101439.88
2022-12-20T19:39:13.878Z,101433.75
2022-12-20T19:41:40.828Z,101440.78
2022-12-20T19:44:07.489Z,101436.28
2022-12-20T19:46:34.135Z,101440.66
2022-12-20T19:49:01.033Z,101443.25
2022-12-20T19:51:29.063Z,101448.59
2022-12-20T19:53:57.219Z,101452.97
2022-12-20T19:56:26.419Z,101451.09
2022-12-20T19:58:54.004Z,101453.72
2022-12-20T20:01:25.468Z,101449.22
2022-12-20T20:03:53.007Z,101455.28
2022-12-20T20:06:20.496Z,101440.19
2022-12-20T20:08:49.629Z,101436.50
2022-12-20T20:11:18.925Z,101448.78
2022-12-20T20:13:46.087Z,101448.75
2022-12-20T20:16:18.215Z,101446.91
2022-12-20T20:18:49.061Z,101443.31
2022-12-20T20:21:20.973Z,101438.88
2022-12-20T20:23:48.405Z,101449.44
2022-12-20T20:26:17.356Z,101442.41
2022-12-20T20:28:45.667Z,101439.72
2022-12-20T20:31:14.668Z,101441.50
2022-12-20T20:33:42.496Z,101437.09
2022-12-20T20:36:13.940Z,101434.47
2022-12-20T20:38:40.717Z,101427.44
2022-12-20T20:41:07.944Z,101427.44
2022-12-20T20:43:37.781Z,101423.00
2022-12-20T20:46:06.512Z,101423.97
2022-12-20T20:48:33.263Z,101420.44
2022-12-20T20:50:59.917Z,101419.56
2022-12-20T20:53:32.970Z,101424.06
2022-12-20T20:56:01.006Z,101422.31
2022-12-20T20:58:27.565Z,101415.41
2022-12-20T21:00:59.159Z,101420.66
2022-12-20T21:03:27.315Z,101419.84
2022-12-20T21:08:40.640Z,101415.38
2022-12-20T21:11:08.088Z,101413.63
2022-12-20T21:13:35.307Z,101399.44
2022-12-20T21:16:20.291Z,101395.84
2022-12-20T21:18:55.568Z,101393.19
2022-12-20T21:21:24.545Z,101401.19
2022-12-20T21:23:52.811Z,101398.50
2022-12-20T21:26:21.050Z,101401.09
2022-12-20T21:28:48.326Z,101394.94
2022-12-20T21:31:17.677Z,101388.72
2022-12-20T21:33:46.134Z,101382.50
2022-12-20T21:36:15.676Z,101386.00
2022-12-20T21:38:46.673Z,101390.38
2022-12-20T21:41:13.404Z,101381.47
2022-12-20T21:43:40.342Z,101376.97
2022-12-20T21:46:11.460Z,101369.88
2022-12-20T21:48:43.160Z,101366.31
2022-12-20T21:51:12.911Z,101354.75
2022-12-20T21:53:45.113Z,101348.50
2022-12-20T21:56:12.013Z,101343.09
2022-12-20T21:58:38.741Z,101336.88
2022-12-20T22:01:08.183Z,101341.25
2022-12-20T22:03:36.743Z,101347.41
2022-12-20T22:06:04.282Z,101335.88
2022-12-20T22:08:32.701Z,101335.00
2022-12-20T22:11:00.328Z,101331.41
2022-12-20T22:13:28.539Z,101318.13
2022-12-20T22:15:55.464Z,101314.56
2022-12-20T22:18:23.066Z,101318.06
2022-12-20T22:20:49.717Z,101313.63
2022-12-20T22:23:16.976Z,101317.06
2022-12-20T22:25:43.823Z,101315.38
2022-12-20T22:28:10.431Z,101319.75
2022-12-20T22:30:41.509Z,101314.47
2022-12-20T22:33:08.539Z,101306.53
2022-12-20T22:35:35.736Z,101295.88
2022-12-20T22:38:02.286Z,101285.22
2022-12-20T22:40:28.874Z,101276.41
2022-12-20T22:42:55.450Z,101278.94
2022-12-20T22:45:22.855Z,101266.63
2022-12-20T22:47:49.409Z,101263.13
2022-12-20T22:50:16.556Z,101268.44
2022-12-20T22:52:43.375Z,101267.50
2022-12-20T22:55:11.057Z,101270.09
2022-12-20T22:57:38.104Z,101265.66
2022-12-20T23:00:06.525Z,101269.13
2022-12-20T23:02:33.205Z,101266.47
2022-12-20T23:04:59.897Z,101267.34
2022-12-20T23:07:26.448Z,101260.28
2022-12-20T23:09:53.004Z,101251.41
2022-12-20T23:12:38.047Z,101250.56
2022-12-20T23:15:23.437Z,101246.16
2022-12-20T23:17:49.956Z,101238.22
2022-12-20T23:20:35.262Z,101244.44
2022-12-20T23:23:01.927Z,101236.47
2022-12-20T23:25:28.579Z,101242.75
2022-12-20T23:27:55.794Z,101239.22
2022-12-20T23:30:24.343Z,101247.13
2022-12-20T23:32:50.972Z,101239.22
2022-12-20T23:35:20.180Z,101237.50
2022-12-20T23:37:47.533Z,101228.69
2022-12-20T23:40:15.421Z,101223.41
2022-12-20T23:42:43.445Z,101213.66
2022-12-20T23:45:10.687Z,101211.88
2022-12-20T23:47:37.432Z,101215.38
2022-12-20T23:50:04.538Z,101205.69
2022-12-20T23:52:31.113Z,101206.50
2022-12-20T23:54:57.712Z,101206.47
2022-12-20T23:57:24.338Z,101203.81
2022-12-20T23:59:50.886Z,101191.44
